East Mansfield, Massachusetts
Current Conditions -  °F | °C
As of 1:53 PM on Thursday 30 Oct 2014 (Local Time) from KOWD Reporting Station
Scattered Clouds Scattered Clouds  
Wind Chill: 59°   Ceiling: Unl
Heat Index: 59°   Visibility: 10mi
Dew Point: 37°   Wind: 8mph
Humidity: 44%   Direction: 290°WNW
Pressure: 29.9"   Gusts: NA
Location:  42.02°N, 71.18°W
Report Text: KOWD 301753Z 29007KT 10SM SCT050 SCT070 15/03 A2990 RMK AO2 SLP126 T01500028 10161 20022 56009
Loading
Personal Weather Stations






























Interactive Weather Map
Tropical Storm Tracking
New forecast layout! Learn more

10-Day Weather Forecast

Advertisements
Track Severe Weather on mobile